sensor_id;sensor_type;location;lat;lon;timestamp;pressure;altitude;pressure_sealevel;temperature;humidity
53480;BME280;56133;51.012;-1.648;2023-01-19T00:00:20;99771.81;;;-1.72;100.00
53480;BME280;56133;51.012;-1.648;2023-01-19T00:02:46;99775.22;;;-1.70;100.00
53480;BME280;56133;51.012;-1.648;2023-01-19T00:05:13;99770.13;;;-1.73;100.00
53480;BME280;56133;51.012;-1.648;2023-01-19T00:07:39;99779.22;;;-1.80;100.00
53480;BME280;56133;51.012;-1.648;2023-01-19T00:10:05;99772.38;;;-1.84;100.00
53480;BME280;56133;51.012;-1.648;2023-01-19T00:12:30;99775.34;;;-1.90;100.00
53480;BME280;56133;51.012;-1.648;2023-01-19T00:14:56;99776.53;;;-1.98;100.00
53480;BME280;56133;51.012;-1.648;2023-01-19T00:17:22;99779.59;;;-2.07;100.00
53480;BME280;56133;51.012;-1.648;2023-01-19T00:19:47;99776.97;;;-2.07;100.00
53480;BME280;56133;51.012;-1.648;2023-01-19T00:22:12;99771.50;;;-2.02;100.00
53480;BME280;56133;51.012;-1.648;2023-01-19T00:24:38;99760.31;;;-2.07;100.00
53480;BME280;56133;51.012;-1.648;2023-01-19T00:27:03;99768.50;;;-2.14;100.00
53480;BME280;56133;51.012;-1.648;2023-01-19T00:29:29;99766.16;;;-2.20;100.00
53480;BME280;56133;51.012;-1.648;2023-01-19T00:32:01;99774.75;;;-2.16;100.00
53480;BME280;56133;51.012;-1.648;2023-01-19T00:34:27;99773.25;;;-2.22;100.00
53480;BME280;56133;51.012;-1.648;2023-01-19T00:37:08;99771.34;;;-2.18;100.00
53480;BME280;56133;51.012;-1.648;2023-01-19T00:39:33;99775.03;;;-2.03;100.00
53480;BME280;56133;51.012;-1.648;2023-01-19T00:41:59;99766.44;;;-2.07;100.00
53480;BME280;56133;51.012;-1.648;2023-01-19T00:44:43;99762.81;;;-2.04;100.00
53480;BME280;56133;51.012;-1.648;2023-01-19T00:47:08;99770.63;;;-2.03;100.00
53480;BME280;56133;51.012;-1.648;2023-01-19T00:49:33;99768.63;;;-1.98;100.00
53480;BME280;56133;51.012;-1.648;2023-01-19T00:51:59;99778.16;;;-1.95;100.00
53480;BME280;56133;51.012;-1.648;2023-01-19T00:54:24;99770.63;;;-2.03;100.00
53480;BME280;56133;51.012;-1.648;2023-01-19T00:56:50;99766.28;;;-2.04;100.00
53480;BME280;56133;51.012;-1.648;2023-01-19T00:59:15;99763.72;;;-2.05;100.00
53480;BME280;56133;51.012;-1.648;2023-01-19T01:01:40;99758.47;;;-2.05;100.00
53480;BME280;56133;51.012;-1.648;2023-01-19T01:04:06;99756.97;;;-2.11;100.00
53480;BME280;56133;51.012;-1.648;2023-01-19T01:06:31;99755.00;;;-2.06;100.00
53480;BME280;56133;51.012;-1.648;2023-01-19T01:08:57;99746.88;;;-2.01;100.00
53480;BME280;56133;51.012;-1.648;2023-01-19T01:11:22;99746.66;;;-1.96;100.00
53480;BME280;56133;51.012;-1.648;2023-01-19T01:13:47;99752.94;;;-1.99;100.00
53480;BME280;56133;51.012;-1.648;2023-01-19T01:16:14;99763.50;;;-2.01;100.00
53480;BME280;56133;51.012;-1.648;2023-01-19T01:18:41;99755.84;;;-2.05;100.00
53480;BME280;56133;51.012;-1.648;2023-01-19T01:21:06;99751.50;;;-2.06;100.00
53480;BME280;56133;51.012;-1.648;2023-01-19T01:23:33;99759.38;;;-2.06;100.00
53480;BME280;56133;51.012;-1.648;2023-01-19T01:25:59;99756.91;;;-2.09;100.00
53480;BME280;56133;51.012;-1.648;2023-01-19T01:28:25;99760.44;;;-2.10;100.00
53480;BME280;56133;51.012;-1.648;2023-01-19T01:30:55;99759.66;;;-2.13;100.00
53480;BME280;56133;51.012;-1.648;2023-01-19T01:33:21;99757.81;;;-2.10;100.00
53480;BME280;56133;51.012;-1.648;2023-01-19T01:35:49;99761.69;;;-2.18;100.00
53480;BME280;56133;51.012;-1.648;2023-01-19T01:38:16;99770.28;;;-2.14;100.00
53480;BME280;56133;51.012;-1.648;2023-01-19T01:40:42;99768.66;;;-2.17;100.00
53480;BME280;56133;51.012;-1.648;2023-01-19T01:43:11;99766.94;;;-2.18;100.00
53480;BME280;56133;51.012;-1.648;2023-01-19T01:45:39;99771.78;;;-2.27;100.00
53480;BME280;56133;51.012;-1.648;2023-01-19T01:48:15;99775.88;;;-2.22;100.00
53480;BME280;56133;51.012;-1.648;2023-01-19T01:51:03;99770.06;;;-2.29;100.00
53480;BME280;56133;51.012;-1.648;2023-01-19T01:53:57;99780.22;;;-2.40;100.00
53480;BME280;56133;51.012;-1.648;2023-01-19T01:56:33;99783.47;;;-2.35;100.00
53480;BME280;56133;51.012;-1.648;2023-01-19T01:59:03;99788.13;;;-2.40;100.00
53480;BME280;56133;51.012;-1.648;2023-01-19T02:01:30;99787.59;;;-2.48;100.00
53480;BME280;56133;51.012;-1.648;2023-01-19T02:04:14;99800.53;;;-2.44;100.00
53480;BME280;56133;51.012;-1.648;2023-01-19T02:06:39;99795.63;;;-2.51;100.00
53480;BME280;56133;51.012;-1.648;2023-01-19T02:09:25;99802.88;;;-2.56;100.00
53480;BME280;56133;51.012;-1.648;2023-01-19T02:12:11;99795.94;;;-2.59;100.00
53480;BME280;56133;51.012;-1.648;2023-01-19T02:14:55;99805.63;;;-2.60;100.00
53480;BME280;56133;51.012;-1.648;2023-01-19T02:17:21;99814.09;;;-2.53;100.00
53480;BME280;56133;51.012;-1.648;2023-01-19T02:19:46;99810.44;;;-2.49;100.00
53480;BME280;56133;51.012;-1.648;2023-01-19T02:22:23;99806.72;;;-2.45;100.00
53480;BME280;56133;51.012;-1.648;2023-01-19T02:24:50;99797.28;;;-2.49;100.00
53480;BME280;56133;51.012;-1.648;2023-01-19T02:27:16;99816.72;;;-2.32;100.00
53480;BME280;56133;51.012;-1.648;2023-01-19T02:29:42;99812.81;;;-2.23;100.00
53480;BME280;56133;51.012;-1.648;2023-01-19T02:32:07;99807.72;;;-2.28;100.00
53480;BME280;56133;51.012;-1.648;2023-01-19T02:34:33;99807.47;;;-2.03;100.00
53480;BME280;56133;51.012;-1.648;2023-01-19T02:37:12;99806.41;;;-1.99;100.00
53480;BME280;56133;51.012;-1.648;2023-01-19T02:39:43;99812.59;;;-2.00;100.00
53480;BME280;56133;51.012;-1.648;2023-01-19T02:42:17;99814.53;;;-2.03;100.00
53480;BME280;56133;51.012;-1.648;2023-01-19T02:44:46;99805.94;;;-2.07;100.00
53480;BME280;56133;51.012;-1.648;2023-01-19T02:47:13;99809.00;;;-1.97;100.00
53480;BME280;56133;51.012;-1.648;2023-01-19T02:49:38;99805.28;;;-1.93;100.00
53480;BME280;56133;51.012;-1.648;2023-01-19T02:52:04;99807.91;;;-1.93;100.00
53480;BME280;56133;51.012;-1.648;2023-01-19T02:57:34;99808.25;;;-2.01;100.00
53480;BME280;56133;51.012;-1.648;2023-01-19T03:02:44;99810.53;;;-2.12;100.00
53480;BME280;56133;51.012;-1.648;2023-01-19T03:05:30;99802.78;;;-2.15;100.00
53480;BME280;56133;51.012;-1.648;2023-01-19T03:11:10;99817.88;;;-2.19;100.00
53480;BME280;56133;51.012;-1.648;2023-01-19T03:16:26;99814.31;;;-2.18;100.00
53480;BME280;56133;51.012;-1.648;2023-01-19T03:18:58;99813.66;;;-2.23;100.00
53480;BME280;56133;51.012;-1.648;2023-01-19T03:21:28;99809.75;;;-2.14;100.00
53480;BME280;56133;51.012;-1.648;2023-01-19T03:23:57;99797.94;;;-2.24;100.00
53480;BME280;56133;51.012;-1.648;2023-01-19T03:26:27;99807.34;;;-2.19;100.00
53480;BME280;56133;51.012;-1.648;2023-01-19T03:28:55;99809.53;;;-2.29;100.00
53480;BME280;56133;51.012;-1.648;2023-01-19T03:31:25;99806.03;;;-2.29;100.00
53480;BME280;56133;51.012;-1.648;2023-01-19T03:33:58;99807.69;;;-2.26;100.00
53480;BME280;56133;51.012;-1.648;2023-01-19T03:38:57;99807.25;;;-2.36;100.00
53480;BME280;56133;51.012;-1.648;2023-01-19T03:41:25;99809.91;;;-2.38;100.00
53480;BME280;56133;51.012;-1.648;2023-01-19T03:43:52;99806.53;;;-2.40;100.00
53480;BME280;56133;51.012;-1.648;2023-01-19T03:46:19;99801.44;;;-2.45;100.00
53480;BME280;56133;51.012;-1.648;2023-01-19T03:48:45;99804.28;;;-2.49;100.00
53480;BME280;56133;51.012;-1.648;2023-01-19T03:51:11;99798.81;;;-2.45;100.00
53480;BME280;56133;51.012;-1.648;2023-01-19T03:53:39;99802.38;;;-2.46;100.00
53480;BME280;56133;51.012;-1.648;2023-01-19T03:56:05;99799.94;;;-2.50;100.00
53480;BME280;56133;51.012;-1.648;2023-01-19T03:58:31;99809.41;;;-2.46;100.00
53480;BME280;56133;51.012;-1.648;2023-01-19T04:00:56;99805.22;;;-2.50;100.00
53480;BME280;56133;51.012;-1.648;2023-01-19T04:03:22;99804.38;;;-2.51;100.00
53480;BME280;56133;51.012;-1.648;2023-01-19T04:05:47;99812.91;;;-2.46;100.00
53480;BME280;56133;51.012;-1.648;2023-01-19T04:08:13;99808.38;;;-2.42;100.00
53480;BME280;56133;51.012;-1.648;2023-01-19T04:10:39;99802.38;;;-2.46;100.00
53480;BME280;56133;51.012;-1.648;2023-01-19T04:13:04;99806.31;;;-2.35;100.00
53480;BME280;56133;51.012;-1.648;2023-01-19T04:15:30;99799.56;;;-2.22;100.00
53480;BME280;56133;51.012;-1.648;2023-01-19T04:17:57;99797.66;;;-2.18;100.00
53480;BME280;56133;51.012;-1.648;2023-01-19T04:20:22;99783.69;;;-2.20;100.00
53480;BME280;56133;51.012;-1.648;2023-01-19T04:22:48;99788.97;;;-2.20;100.00
53480;BME280;56133;51.012;-1.648;2023-01-19T04:25:14;99790.97;;;-2.25;100.00
53480;BME280;56133;51.012;-1.648;2023-01-19T04:27:40;99780.38;;;-2.24;100.00
53480;BME280;56133;51.012;-1.648;2023-01-19T04:30:06;99787.34;;;-2.23;100.00
53480;BME280;56133;51.012;-1.648;2023-01-19T04:32:31;99784.56;;;-2.20;100.00
53480;BME280;56133;51.012;-1.648;2023-01-19T04:34:57;99779.22;;;-2.18;100.00
53480;BME280;56133;51.012;-1.648;2023-01-19T04:37:23;99775.06;;;-2.22;100.00
53480;BME280;56133;51.012;-1.648;2023-01-19T04:39:48;99774.81;;;-2.37;100.00
53480;BME280;56133;51.012;-1.648;2023-01-19T04:42:14;99771.59;;;-2.44;100.00
53480;BME280;56133;51.012;-1.648;2023-01-19T04:44:39;99769.97;;;-2.46;100.00
53480;BME280;56133;51.012;-1.648;2023-01-19T04:47:05;99767.56;;;-2.51;100.00
53480;BME280;56133;51.012;-1.648;2023-01-19T04:49:30;99765.41;;;-2.42;100.00
53480;BME280;56133;51.012;-1.648;2023-01-19T04:51:55;99772.59;;;-2.46;100.00
53480;BME280;56133;51.012;-1.648;2023-01-19T04:54:21;99766.47;;;-2.47;100.00
53480;BME280;56133;51.012;-1.648;2023-01-19T04:56:47;99773.38;;;-2.44;100.00
53480;BME280;56133;51.012;-1.648;2023-01-19T04:59:13;99767.47;;;-2.49;100.00
53480;BME280;56133;51.012;-1.648;2023-01-19T05:01:38;99768.38;;;-2.50;100.00
53480;BME280;56133;51.012;-1.648;2023-01-19T05:04:03;99778.91;;;-2.50;100.00
53480;BME280;56133;51.012;-1.648;2023-01-19T05:06:31;99767.47;;;-2.49;100.00
53480;BME280;56133;51.012;-1.648;2023-01-19T05:08:57;99766.41;;;-2.45;100.00
53480;BME280;56133;51.012;-1.648;2023-01-19T05:11:22;99769.38;;;-2.53;100.00
53480;BME280;56133;51.012;-1.648;2023-01-19T05:13:48;99775.63;;;-2.55;100.00
53480;BME280;56133;51.012;-1.648;2023-01-19T05:16:13;99764.00;;;-2.50;100.00
53480;BME280;56133;51.012;-1.648;2023-01-19T05:18:39;99764.72;;;-2.46;100.00
53480;BME280;56133;51.012;-1.648;2023-01-19T05:21:06;99768.84;;;-2.40;100.00
53480;BME280;56133;51.012;-1.648;2023-01-19T05:23:31;99766.06;;;-2.37;100.00
53480;BME280;56133;51.012;-1.648;2023-01-19T05:25:58;99764.28;;;-2.37;100.00
53480;BME280;56133;51.012;-1.648;2023-01-19T05:28:28;99765.84;;;-2.33;100.00
53480;BME280;56133;51.012;-1.648;2023-01-19T05:30:54;99771.91;;;-2.31;100.00
53480;BME280;56133;51.012;-1.648;2023-01-19T05:33:20;99763.78;;;-2.26;100.00
53480;BME280;56133;51.012;-1.648;2023-01-19T05:35:48;99762.09;;;-2.27;100.00
53480;BME280;56133;51.012;-1.648;2023-01-19T05:38:13;99757.13;;;-2.14;100.00
53480;BME280;56133;51.012;-1.648;2023-01-19T05:40:39;99762.94;;;-2.07;100.00
53480;BME280;56133;51.012;-1.648;2023-01-19T05:43:04;99765.66;;;-2.09;100.00
53480;BME280;56133;51.012;-1.648;2023-01-19T05:45:30;99756.91;;;-2.09;100.00
53480;BME280;56133;51.012;-1.648;2023-01-19T05:47:55;99762.25;;;-2.11;100.00
53480;BME280;56133;51.012;-1.648;2023-01-19T05:50:21;99765.28;;;-2.20;100.00
53480;BME280;56133;51.012;-1.648;2023-01-19T05:52:47;99764.66;;;-2.25;100.00
53480;BME280;56133;51.012;-1.648;2023-01-19T05:55:12;99764.00;;;-2.31;100.00
53480;BME280;56133;51.012;-1.648;2023-01-19T05:57:39;99761.50;;;-2.34;100.00
53480;BME280;56133;51.012;-1.648;2023-01-19T06:00:05;99769.91;;;-2.25;100.00
53480;BME280;56133;51.012;-1.648;2023-01-19T06:02:31;99763.88;;;-2.27;100.00
53480;BME280;56133;51.012;-1.648;2023-01-19T06:04:56;99764.22;;;-2.35;100.00
53480;BME280;56133;51.012;-1.648;2023-01-19T06:07:22;99761.28;;;-2.29;100.00
53480;BME280;56133;51.012;-1.648;2023-01-19T06:09:47;99762.66;;;-2.20;100.00
53480;BME280;56133;51.012;-1.648;2023-01-19T06:12:13;99755.19;;;-2.10;100.00
53480;BME280;56133;51.012;-1.648;2023-01-19T06:14:38;99760.97;;;-2.02;100.00
53480;BME280;56133;51.012;-1.648;2023-01-19T06:17:05;99758.09;;;-1.98;100.00
53480;BME280;56133;51.012;-1.648;2023-01-19T06:19:32;99756.25;;;-1.95;100.00
53480;BME280;56133;51.012;-1.648;2023-01-19T06:21:57;99753.34;;;-2.08;100.00
53480;BME280;56133;51.012;-1.648;2023-01-19T06:24:23;99753.97;;;-2.03;100.00
53480;BME280;56133;51.012;-1.648;2023-01-19T06:26:49;99751.91;;;-1.96;100.00
53480;BME280;56133;51.012;-1.648;2023-01-19T06:29:15;99742.88;;;-1.91;100.00
53480;BME280;56133;51.012;-1.648;2023-01-19T06:31:41;99749.16;;;-1.93;100.00
53480;BME280;56133;51.012;-1.648;2023-01-19T06:34:07;99754.41;;;-1.93;100.00
53480;BME280;56133;51.012;-1.648;2023-01-19T06:36:33;99753.63;;;-1.95;100.00
53480;BME280;56133;51.012;-1.648;2023-01-19T06:38:58;99756.16;;;-1.94;100.00
53480;BME280;56133;51.012;-1.648;2023-01-19T06:41:27;99757.59;;;-1.87;100.00
53480;BME280;56133;51.012;-1.648;2023-01-19T06:43:53;99758.72;;;-1.73;100.00
53480;BME280;56133;51.012;-1.648;2023-01-19T06:46:19;99756.78;;;-1.70;100.00
53480;BME280;56133;51.012;-1.648;2023-01-19T06:48:44;99758.06;;;-1.78;100.00
53480;BME280;56133;51.012;-1.648;2023-01-19T06:51:10;99757.09;;;-1.76;100.00
53480;BME280;56133;51.012;-1.648;2023-01-19T06:53:35;99756.44;;;-1.81;100.00
53480;BME280;56133;51.012;-1.648;2023-01-19T06:56:01;99755.91;;;-1.88;100.00
53480;BME280;56133;51.012;-1.648;2023-01-19T06:58:28;99765.00;;;-1.76;100.00
53480;BME280;56133;51.012;-1.648;2023-01-19T07:00:54;99759.72;;;-1.76;100.00
53480;BME280;56133;51.012;-1.648;2023-01-19T07:03:21;99765.00;;;-1.76;100.00
53480;BME280;56133;51.012;-1.648;2023-01-19T07:05:51;99764.06;;;-1.75;100.00
53480;BME280;56133;51.012;-1.648;2023-01-19T07:08:17;99764.72;;;-1.89;100.00
53480;BME280;56133;51.012;-1.648;2023-01-19T07:10:42;99767.91;;;-1.82;100.00
53480;BME280;56133;51.012;-1.648;2023-01-19T07:13:08;99775.16;;;-1.87;100.00
53480;BME280;56133;51.012;-1.648;2023-01-19T07:15:34;99778.44;;;-1.82;100.00
53480;BME280;56133;51.012;-1.648;2023-01-19T07:17:59;99776.59;;;-1.80;100.00
53480;BME280;56133;51.012;-1.648;2023-01-19T07:20:29;99777.75;;;-1.86;100.00
53480;BME280;56133;51.012;-1.648;2023-01-19T07:22:55;99768.69;;;-1.80;100.00
53480;BME280;56133;51.012;-1.648;2023-01-19T07:25:21;99784.50;;;-1.80;100.00
53480;BME280;56133;51.012;-1.648;2023-01-19T07:27:46;99784.00;;;-1.88;100.00
53480;BME280;56133;51.012;-1.648;2023-01-19T07:30:12;99777.44;;;-1.99;100.00
53480;BME280;56133;51.012;-1.648;2023-01-19T07:32:40;99787.19;;;-2.01;100.00
53480;BME280;56133;51.012;-1.648;2023-01-19T07:35:07;99789.47;;;-1.93;100.00
53480;BME280;56133;51.012;-1.648;2023-01-19T07:37:33;99794.19;;;-1.80;100.00
53480;BME280;56133;51.012;-1.648;2023-01-19T07:39:59;99786.66;;;-1.71;100.00
53480;BME280;56133;51.012;-1.648;2023-01-19T07:42:24;99784.91;;;-1.70;100.00
53480;BME280;56133;51.012;-1.648;2023-01-19T07:44:50;99786.84;;;-1.74;100.00
53480;BME280;56133;51.012;-1.648;2023-01-19T07:47:15;99781.72;;;-1.77;100.00
53480;BME280;56133;51.012;-1.648;2023-01-19T07:49:41;99785.56;;;-1.84;100.00
53480;BME280;56133;51.012;-1.648;2023-01-19T07:52:06;99789.13;;;-1.85;100.00
53480;BME280;56133;51.012;-1.648;2023-01-19T07:54:32;99791.75;;;-1.85;100.00
53480;BME280;56133;51.012;-1.648;2023-01-19T07:56:58;99784.78;;;-1.86;100.00
53480;BME280;56133;51.012;-1.648;2023-01-19T07:59:25;99785.19;;;-1.76;100.00
53480;BME280;56133;51.012;-1.648;2023-01-19T08:01:51;99782.06;;;-1.65;100.00
53480;BME280;56133;51.012;-1.648;2023-01-19T08:04:18;99789.13;;;-1.66;100.00
53480;BME280;56133;51.012;-1.648;2023-01-19T08:06:44;99793.22;;;-1.60;100.00
53480;BME280;56133;51.012;-1.648;2023-01-19T08:09:11;99794.03;;;-1.41;100.00
53480;BME280;56133;51.012;-1.648;2023-01-19T08:11:37;99781.25;;;-1.48;100.00
53480;BME280;56133;51.012;-1.648;2023-01-19T08:14:02;99785.03;;;-1.54;100.00
53480;BME280;56133;51.012;-1.648;2023-01-19T08:16:28;99786.81;;;-1.55;100.00
53480;BME280;56133;51.012;-1.648;2023-01-19T08:18:53;99797.47;;;-1.58;100.00
53480;BME280;56133;51.012;-1.648;2023-01-19T08:21:19;99801.28;;;-1.63;100.00
53480;BME280;56133;51.012;-1.648;2023-01-19T08:23:55;99799.84;;;-1.71;100.00
53480;BME280;56133;51.012;-1.648;2023-01-19T08:26:26;99800.56;;;-1.67;100.00
53480;BME280;56133;51.012;-1.648;2023-01-19T08:28:53;99797.22;;;-1.71;100.00
53480;BME280;56133;51.012;-1.648;2023-01-19T08:31:18;99806.81;;;-1.70;100.00
53480;BME280;56133;51.012;-1.648;2023-01-19T08:33:44;99813.72;;;-1.86;100.00
53480;BME280;56133;51.012;-1.648;2023-01-19T08:36:09;99809.06;;;-1.79;100.00
53480;BME280;56133;51.012;-1.648;2023-01-19T08:38:35;99809.69;;;-1.74;100.00
53480;BME280;56133;51.012;-1.648;2023-01-19T08:41:00;99807.41;;;-1.82;100.00
53480;BME280;56133;51.012;-1.648;2023-01-19T08:43:26;99808.88;;;-1.76;100.00
53480;BME280;56133;51.012;-1.648;2023-01-19T08:45:52;99804.41;;;-1.74;100.00
53480;BME280;56133;51.012;-1.648;2023-01-19T08:48:19;99807.97;;;-1.75;100.00
53480;BME280;56133;51.012;-1.648;2023-01-19T08:50:49;99815.09;;;-1.77;100.00
53480;BME280;56133;51.012;-1.648;2023-01-19T08:53:15;99815.72;;;-1.72;100.00
53480;BME280;56133;51.012;-1.648;2023-01-19T08:55:41;99819.56;;;-1.60;100.00
53480;BME280;56133;51.012;-1.648;2023-01-19T08:58:07;99814.84;;;-1.54;100.00
53480;BME280;56133;51.012;-1.648;2023-01-19T09:00:34;99824.97;;;-1.63;100.00
53480;BME280;56133;51.012;-1.648;2023-01-19T09:03:02;99817.84;;;-1.61;100.00
53480;BME280;56133;51.012;-1.648;2023-01-19T09:05:32;99828.47;;;-1.63;100.00
53480;BME280;56133;51.012;-1.648;2023-01-19T09:08:00;99817.06;;;-1.63;100.00
53480;BME280;56133;51.012;-1.648;2023-01-19T09:10:27;99820.34;;;-1.58;100.00
53480;BME280;56133;51.012;-1.648;2023-01-19T09:12:56;99822.91;;;-1.57;100.00
53480;BME280;56133;51.012;-1.648;2023-01-19T09:15:21;99818.19;;;-1.50;100.00
53480;BME280;56133;51.012;-1.648;2023-01-19T09:17:47;99822.31;;;-1.44;100.00
53480;BME280;56133;51.012;-1.648;2023-01-19T09:20:13;99828.53;;;-1.45;100.00
53480;BME280;56133;51.012;-1.648;2023-01-19T09:22:38;99827.09;;;-1.53;100.00
53480;BME280;56133;51.012;-1.648;2023-01-19T09:25:05;99826.03;;;-1.48;100.00
53480;BME280;56133;51.012;-1.648;2023-01-19T09:27:31;99822.16;;;-1.41;100.00
53480;BME280;56133;51.012;-1.648;2023-01-19T09:29:56;99830.28;;;-1.46;100.00
53480;BME280;56133;51.012;-1.648;2023-01-19T09:32:23;99835.84;;;-1.33;100.00
53480;BME280;56133;51.012;-1.648;2023-01-19T09:34:48;99831.34;;;-1.31;100.00
53480;BME280;56133;51.012;-1.648;2023-01-19T09:37:14;99831.13;;;-1.26;100.00
53480;BME280;56133;51.012;-1.648;2023-01-19T09:39:40;99838.94;;;-1.25;100.00
53480;BME280;56133;51.012;-1.648;2023-01-19T09:42:36;99841.38;;;-1.02;100.00
53480;BME280;56133;51.012;-1.648;2023-01-19T09:45:18;99841.69;;;-0.91;100.00
53480;BME280;56133;51.012;-1.648;2023-01-19T09:47:48;99845.34;;;-0.76;100.00
53480;BME280;56133;51.012;-1.648;2023-01-19T09:50:26;99841.75;;;-0.57;100.00
53480;BME280;56133;51.012;-1.648;2023-01-19T09:52:57;99854.72;;;-0.35;100.00
53480;BME280;56133;51.012;-1.648;2023-01-19T09:55:26;99843.34;;;-0.20;100.00
53480;BME280;56133;51.012;-1.648;2023-01-19T09:57:53;99842.31;;;-0.17;100.00
53480;BME280;56133;51.012;-1.648;2023-01-19T10:00:19;99843.63;;;-0.08;100.00
53480;BME280;56133;51.012;-1.648;2023-01-19T10:03:00;99849.09;;;0.05;100.00
53480;BME280;56133;51.012;-1.648;2023-01-19T10:05:41;99836.94;;;0.18;100.00
53480;BME280;56133;51.012;-1.648;2023-01-19T10:08:30;99846.91;;;0.45;100.00
53480;BME280;56133;51.012;-1.648;2023-01-19T10:10:59;99851.09;;;0.33;100.00
53480;BME280;56133;51.012;-1.648;2023-01-19T10:18:51;99861.06;;;0.28;100.00
53480;BME280;56133;51.012;-1.648;2023-01-19T10:21:38;99861.91;;;0.12;100.00
53480;BME280;56133;51.012;-1.648;2023-01-19T10:26:43;99852.19;;;0.45;100.00
53480;BME280;56133;51.012;-1.648;2023-01-19T10:29:29;99847.25;;;0.71;100.00
53480;BME280;56133;51.012;-1.648;2023-01-19T10:32:10;99850.56;;;0.90;100.00
53480;BME280;56133;51.012;-1.648;2023-01-19T10:34:38;99845.91;;;1.10;100.00
53480;BME280;56133;51.012;-1.648;2023-01-19T10:37:27;99849.06;;;1.17;100.00
53480;BME280;56133;51.012;-1.648;2023-01-19T10:42:38;99850.16;;;1.13;100.00
53480;BME280;56133;51.012;-1.648;2023-01-19T10:45:27;99851.16;;;1.26;100.00
53480;BME280;56133;51.012;-1.648;2023-01-19T10:47:57;99855.53;;;1.42;100.00
53480;BME280;56133;51.012;-1.648;2023-01-19T10:50:30;99848.94;;;1.49;100.00
53480;BME280;56133;51.012;-1.648;2023-01-19T10:52:58;99853.91;;;1.70;100.00
53480;BME280;56133;51.012;-1.648;2023-01-19T10:55:31;99849.34;;;1.72;100.00
53480;BME280;56133;51.012;-1.648;2023-01-19T10:57:58;99843.50;;;1.95;100.00
53480;BME280;56133;51.012;-1.648;2023-01-19T11:00:37;99837.22;;;2.11;100.00
53480;BME280;56133;51.012;-1.648;2023-01-19T11:03:04;99839.69;;;2.28;100.00
53480;BME280;56133;51.012;-1.648;2023-01-19T11:05:45;99842.22;;;2.45;100.00
53480;BME280;56133;51.012;-1.648;2023-01-19T11:10:28;99842.63;;;2.66;100.00
53480;BME280;56133;51.012;-1.648;2023-01-19T11:13:14;99839.66;;;2.70;100.00
53480;BME280;56133;51.012;-1.648;2023-01-19T11:18:27;99844.03;;;2.71;100.00
53480;BME280;56133;51.012;-1.648;2023-01-19T11:20:54;99844.22;;;2.96;100.00
53480;BME280;56133;51.012;-1.648;2023-01-19T11:25:50;99834.75;;;3.32;100.00
53480;BME280;56133;51.012;-1.648;2023-01-19T11:30:56;99845.63;;;3.68;100.00
53480;BME280;56133;51.012;-1.648;2023-01-19T11:33:31;99841.78;;;3.59;100.00
53480;BME280;56133;51.012;-1.648;2023-01-19T11:36:05;99836.38;;;3.86;100.00
53480;BME280;56133;51.012;-1.648;2023-01-19T11:38:39;99840.09;;;3.71;100.00
53480;BME280;56133;51.012;-1.648;2023-01-19T11:41:14;99841.47;;;3.76;100.00
53480;BME280;56133;51.012;-1.648;2023-01-19T11:43:41;99844.56;;;3.57;100.00
53480;BME280;56133;51.012;-1.648;2023-01-19T11:46:09;99837.75;;;3.53;100.00
53480;BME280;56133;51.012;-1.648;2023-01-19T11:48:39;99835.53;;;3.60;100.00
53480;BME280;56133;51.012;-1.648;2023-01-19T11:51:13;99839.97;;;3.46;100.00
53480;BME280;56133;51.012;-1.648;2023-01-19T11:53:42;99836.38;;;3.47;100.00
53480;BME280;56133;51.012;-1.648;2023-01-19T11:56:13;99842.97;;;3.68;100.00
53480;BME280;56133;51.012;-1.648;2023-01-19T11:58:43;99831.59;;;4.04;100.00
53480;BME280;56133;51.012;-1.648;2023-01-19T12:01:28;99837.38;;;4.35;100.00
53480;BME280;56133;51.012;-1.648;2023-01-19T12:04:16;99841.13;;;4.33;100.00
53480;BME280;56133;51.012;-1.648;2023-01-19T12:06:47;99837.00;;;4.03;100.00
53480;BME280;56133;51.012;-1.648;2023-01-19T12:11:46;99840.09;;;4.47;100.00
53480;BME280;56133;51.012;-1.648;2023-01-19T12:14:30;99832.22;;;4.58;100.00
53480;BME280;56133;51.012;-1.648;2023-01-19T12:16:59;99829.44;;;4.60;100.00
53480;BME280;56133;51.012;-1.648;2023-01-19T12:19:49;99825.06;;;4.59;100.00
53480;BME280;56133;51.012;-1.648;2023-01-19T12:22:17;99819.41;;;4.63;100.00
53480;BME280;56133;51.012;-1.648;2023-01-19T12:25:20;99827.69;;;4.71;100.00
53480;BME280;56133;51.012;-1.648;2023-01-19T12:27:47;99826.22;;;4.67;100.00
53480;BME280;56133;51.012;-1.648;2023-01-19T12:30:24;99825.59;;;4.64;100.00
53480;BME280;56133;51.012;-1.648;2023-01-19T12:32:51;99815.56;;;4.67;100.00
53480;BME280;56133;51.012;-1.648;2023-01-19T12:41:20;99813.66;;;4.69;100.00
53480;BME280;56133;51.012;-1.648;2023-01-19T12:43:48;99818.91;;;4.58;100.00
53480;BME280;56133;51.012;-1.648;2023-01-19T12:46:33;99823.88;;;4.38;100.00
53480;BME280;56133;51.012;-1.648;2023-01-19T12:51:32;99811.38;;;4.15;100.00
53480;BME280;56133;51.012;-1.648;2023-01-19T12:53:58;99816.19;;;4.09;100.00
53480;BME280;56133;51.012;-1.648;2023-01-19T12:56:29;99816.66;;;4.28;100.00
53480;BME280;56133;51.012;-1.648;2023-01-19T12:58:57;99807.00;;;4.51;100.00
53480;BME280;56133;51.012;-1.648;2023-01-19T13:01:23;99803.13;;;4.68;100.00
53480;BME280;56133;51.012;-1.648;2023-01-19T13:04:04;99803.41;;;4.76;100.00
53480;BME280;56133;51.012;-1.648;2023-01-19T13:09:35;99804.97;;;4.79;100.00
53480;BME280;56133;51.012;-1.648;2023-01-19T13:14:40;99805.97;;;5.13;100.00
53480;BME280;56133;51.012;-1.648;2023-01-19T13:17:32;99814.09;;;5.12;100.00
53480;BME280;56133;51.012;-1.648;2023-01-19T13:20:27;99808.94;;;4.97;100.00
53480;BME280;56133;51.012;-1.648;2023-01-19T13:25:32;99811.78;;;4.83;100.00
53480;BME280;56133;51.012;-1.648;2023-01-19T13:28:00;99814.72;;;4.91;100.00
53480;BME280;56133;51.012;-1.648;2023-01-19T13:30:27;99813.94;;;4.78;100.00
53480;BME280;56133;51.012;-1.648;2023-01-19T13:33:04;99808.84;;;4.99;100.00
53480;BME280;56133;51.012;-1.648;2023-01-19T13:35:30;99808.59;;;5.02;100.00
53480;BME280;56133;51.012;-1.648;2023-01-19T13:37:57;99812.09;;;5.03;100.00
53480;BME280;56133;51.012;-1.648;2023-01-19T13:40:32;99816.69;;;5.00;100.00
53480;BME280;56133;51.012;-1.648;2023-01-19T13:43:00;99817.78;;;4.98;100.00
53480;BME280;56133;51.012;-1.648;2023-01-19T13:47:53;99813.97;;;4.40;100.00